Time;durP1;ratioP1;P1;durP2;ratioP2;P2;SDS_P1;SDS_P2;PMS_P1;PMS_P2;Temp;Humidity;BMP_temperature;BMP_pressure;BME280_temperature;BME280_humidity;BME280_pressure;Samples;Min_cycle;Max_cycle;Signal;HPM_P1;HPM_P2
2022/03/16 00:01:59;;;;;;;11.43;10.23;;;6.70;99.90;;;;;;5057846;28;20203;-74
2022/03/16 00:04:25;;;;;;;12.40;11.10;;;6.90;99.90;;;;;;5061997;28;20269;-74
2022/03/16 00:06:50;;;;;;;11.43;10.27;;;6.90;99.90;;;;;;5065544;28;20633;-74
2022/03/16 00:09:16;;;;;;;11.80;10.60;;;6.90;99.90;;;;;;5067042;28;20180;-74
2022/03/16 00:11:42;;;;;;;9.67;8.77;;;6.90;99.90;;;;;;5066473;28;20199;-75
2022/03/16 00:14:07;;;;;;;11.93;10.73;;;6.90;99.90;;;;;;5062645;28;20195;-74
2022/03/16 00:16:33;;;;;;;10.60;9.27;;;6.90;99.90;;;;;;5063589;28;20218;-74
2022/03/16 00:18:59;;;;;;;11.75;10.63;;;7.00;99.90;;;;;;5066583;28;20179;-74
2022/03/16 00:21:24;;;;;;;11.83;10.73;;;7.00;99.90;;;;;;5062145;28;20175;-74
2022/03/16 00:23:50;;;;;;;13.20;11.90;;;7.00;99.90;;;;;;5054414;28;20215;-74
2022/03/16 00:26:16;;;;;;;11.77;10.52;;;7.00;99.90;;;;;;5063882;28;20566;-74
2022/03/16 00:28:41;;;;;;;12.13;10.48;;;7.00;99.90;;;;;;5067322;28;20191;-75
2022/03/16 00:31:07;;;;;;;12.80;11.50;;;7.10;99.90;;;;;;5061703;28;20595;-74
2022/03/16 00:33:32;;;;;;;14.80;12.05;;;7.10;99.90;;;;;;5058959;28;20195;-74
2022/03/16 00:35:58;;;;;;;12.35;10.85;;;7.10;99.90;;;;;;5062357;28;20179;-74
2022/03/16 00:38:24;;;;;;;15.30;12.63;;;7.20;99.90;;;;;;5071096;28;20564;-74
2022/03/16 00:40:50;;;;;;;14.37;12.87;;;7.20;99.90;;;;;;5070242;28;20603;-74
2022/03/16 00:43:15;;;;;;;15.77;12.53;;;7.10;99.90;;;;;;5068201;28;20219;-74
2022/03/16 00:45:41;;;;;;;13.98;11.85;;;7.20;99.90;;;;;;5060798;28;20179;-74
2022/03/16 00:48:06;;;;;;;14.13;11.88;;;7.20;99.90;;;;;;5071165;28;20232;-73
2022/03/16 00:50:34;;;;;;;10.87;9.60;;;7.20;99.90;;;;;;5065759;28;20172;-73
2022/03/16 00:53:00;;;;;;;14.80;13.23;;;7.10;99.90;;;;;;5062135;28;20180;-73
2022/03/16 00:55:26;;;;;;;14.30;12.80;;;7.10;99.90;;;;;;5069313;28;20207;-73
2022/03/16 00:57:52;;;;;;;14.70;13.10;;;7.10;99.90;;;;;;5070165;28;20213;-73
2022/03/16 01:00:17;;;;;;;15.83;12.37;;;7.10;99.90;;;;;;5066868;28;20646;-73
2022/03/16 01:02:43;;;;;;;15.33;13.83;;;7.10;99.90;;;;;;5062856;28;20214;-73
2022/03/16 01:05:09;;;;;;;16.57;14.83;;;7.10;99.90;;;;;;5067959;28;20178;-73
2022/03/16 01:07:34;;;;;;;15.80;14.20;;;7.10;99.90;;;;;;5071218;28;20254;-73
2022/03/16 01:10:00;;;;;;;15.27;13.77;;;7.10;99.90;;;;;;5065009;28;20196;-73
2022/03/16 01:12:26;;;;;;;15.70;14.17;;;7.00;99.90;;;;;;5068629;28;20206;-73
2022/03/16 01:14:51;;;;;;;16.37;14.27;;;7.00;99.90;;;;;;5073753;28;20241;-73
2022/03/16 01:17:17;;;;;;;15.23;13.70;;;7.00;99.90;;;;;;5072921;28;20241;-73
2022/03/16 01:19:43;;;;;;;16.47;14.77;;;7.10;99.90;;;;;;5067913;28;20207;-73
2022/03/16 01:22:08;;;;;;;15.63;14.03;;;7.10;99.90;;;;;;5072223;28;20199;-74
2022/03/16 01:24:34;;;;;;;18.50;15.40;;;7.10;99.90;;;;;;5062266;28;20191;-75
2022/03/16 01:27:01;;;;;;;17.38;15.55;;;7.10;99.90;;;;;;5065316;28;20198;-74
2022/03/16 01:29:27;;;;;;;17.43;15.53;;;7.00;99.90;;;;;;5070005;28;20262;-73
2022/03/16 01:31:54;;;;;;;17.40;15.57;;;7.00;99.90;;;;;;5071611;28;20216;-73
2022/03/16 01:34:20;;;;;;;17.58;15.77;;;7.00;99.90;;;;;;5061345;28;20203;-73
2022/03/16 01:36:46;;;;;;;18.30;15.80;;;7.10;99.90;;;;;;5067850;28;20163;-74
2022/03/16 01:39:12;;;;;;;18.80;16.83;;;7.10;99.90;;;;;;5064516;28;20490;-74
2022/03/16 01:41:38;;;;;;;18.43;16.33;;;7.10;99.90;;;;;;5067175;28;20558;-74
2022/03/16 01:44:04;;;;;;;18.05;14.88;;;7.10;99.90;;;;;;5063448;28;20241;-74
2022/03/16 01:46:30;;;;;;;18.37;16.37;;;7.10;99.90;;;;;;5066520;28;20747;-74
2022/03/16 01:48:56;;;;;;;20.00;17.90;;;7.10;99.90;;;;;;5063409;28;20202;-74
2022/03/16 01:51:22;;;;;;;19.92;16.65;;;7.00;99.90;;;;;;5065671;28;20187;-74
2022/03/16 01:53:48;;;;;;;17.67;15.88;;;6.90;99.90;;;;;;5065415;28;20195;-74
2022/03/16 01:56:18;;;;;;;16.73;13.87;;;6.90;99.90;;;;;;5057332;28;20180;-74
2022/03/16 01:58:45;;;;;;;18.40;16.25;;;7.00;99.90;;;;;;5067306;28;20194;-74
2022/03/16 02:01:11;;;;;;;19.13;17.13;;;7.00;99.90;;;;;;5064962;28;20826;-74
2022/03/16 02:03:36;;;;;;;16.63;14.63;;;7.00;99.90;;;;;;5065740;28;20637;-74
2022/03/16 02:06:03;;;;;;;19.52;16.98;;;6.90;99.90;;;;;;5067989;28;20191;-75
2022/03/16 02:08:30;;;;;;;17.85;15.95;;;6.90;99.90;;;;;;5067435;28;20193;-74
2022/03/16 02:10:56;;;;;;;17.80;15.90;;;6.90;99.90;;;;;;5061647;28;20184;-74
2022/03/16 02:13:21;;;;;;;16.65;15.05;;;6.90;99.90;;;;;;5073854;28;20767;-75
2022/03/16 02:15:47;;;;;;;16.38;14.77;;;6.80;99.90;;;;;;5060048;28;20642;-75
2022/03/16 02:18:13;;;;;;;15.70;14.10;;;6.80;99.90;;;;;;5063361;28;20183;-75
2022/03/16 02:20:39;;;;;;;14.95;13.30;;;6.80;99.90;;;;;;5065819;28;20587;-75
2022/03/16 02:23:07;;;;;;;15.90;13.10;;;6.80;99.90;;;;;;5065968;28;20625;-75
2022/03/16 02:25:34;;;;;;;13.67;12.27;;;6.80;99.90;;;;;;5063060;28;20191;-74
2022/03/16 02:28:00;;;;;;;15.53;14.03;;;6.80;99.90;;;;;;5062513;28;20222;-74
2022/03/16 02:30:28;;;;;;;13.95;12.57;;;6.80;99.90;;;;;;5063930;28;20704;-74
2022/03/16 02:32:54;;;;;;;14.30;12.73;;;6.70;99.90;;;;;;5080688;28;20186;-74
2022/03/16 02:35:21;;;;;;;14.40;12.90;;;6.60;99.90;;;;;;5060004;28;20183;-74
2022/03/16 02:37:47;;;;;;;14.93;13.43;;;6.40;99.90;;;;;;5061887;28;20528;-74
2022/03/16 02:40:18;;;;;;;15.13;13.53;;;6.30;99.90;;;;;;5061964;28;20190;-75
2022/03/16 02:42:43;;;;;;;15.50;13.90;;;6.10;99.90;;;;;;5064950;28;20211;-75
2022/03/16 02:45:09;;;;;;;15.77;14.17;;;6.00;99.90;;;;;;5062572;28;20214;-75
2022/03/16 02:47:37;;;;;;;14.17;12.77;;;5.90;99.90;;;;;;5060893;28;20260;-75
2022/03/16 02:50:03;;;;;;;14.77;13.27;;;5.80;99.90;;;;;;5062740;28;20270;-74
2022/03/16 02:52:29;;;;;;;13.53;12.13;;;5.70;99.90;;;;;;5062345;28;20222;-74
2022/03/16 02:54:54;;;;;;;12.03;10.93;;;5.80;99.90;;;;;;5073482;28;20223;-74
2022/03/16 02:57:20;;;;;;;12.60;11.30;;;5.80;99.90;;;;;;5058836;28;20194;-74
2022/03/16 02:59:46;;;;;;;12.50;11.20;;;5.80;99.90;;;;;;5063909;28;20183;-74
2022/03/16 03:02:12;;;;;;;12.87;11.67;;;5.80;99.90;;;;;;5065627;28;20203;-74
2022/03/16 03:04:38;;;;;;;12.10;10.77;;;5.80;99.90;;;;;;5061296;28;20208;-74
2022/03/16 03:07:05;;;;;;;12.63;11.43;;;5.80;99.90;;;;;;5061602;28;20258;-74
2022/03/16 03:09:31;;;;;;;13.23;11.80;;;5.80;99.90;;;;;;5064891;28;20229;-74
2022/03/16 03:11:59;;;;;;;10.50;9.40;;;5.80;99.90;;;;;;5057069;28;20662;-73
2022/03/16 03:14:25;;;;;;;11.37;10.27;;;5.80;99.90;;;;;;5061741;28;20200;-74
2022/03/16 03:16:51;;;;;;;10.93;9.83;;;5.90;99.90;;;;;;5062538;28;20184;-75
2022/03/16 03:19:17;;;;;;;12.17;10.97;;;5.90;99.90;;;;;;5055145;28;20175;-74
2022/03/16 03:21:42;;;;;;;11.77;10.60;;;5.90;99.90;;;;;;5064189;28;20566;-75
2022/03/16 03:24:08;;;;;;;11.57;10.47;;;5.80;99.90;;;;;;5063338;28;20211;-75
2022/03/16 03:26:33;;;;;;;12.47;11.27;;;5.80;99.90;;;;;;5063770;28;20187;-74
2022/03/16 03:28:59;;;;;;;12.23;10.67;;;5.80;99.90;;;;;;5062985;28;20191;-74
2022/03/16 03:31:25;;;;;;;11.23;10.10;;;5.80;99.90;;;;;;5062810;28;20613;-74
2022/03/16 03:33:50;;;;;;;10.90;9.80;;;5.80;99.90;;;;;;5058090;28;20213;-74
2022/03/16 03:36:16;;;;;;;11.75;10.63;;;6.00;99.90;;;;;;5058948;28;20186;-74
2022/03/16 03:38:41;;;;;;;10.38;9.38;;;6.10;99.90;;;;;;5058681;28;20211;-74
2022/03/16 03:41:07;;;;;;;9.97;8.97;;;6.10;99.90;;;;;;5061625;28;20187;-74
2022/03/16 03:43:33;;;;;;;10.70;9.70;;;6.20;99.90;;;;;;5070082;28;20589;-74
2022/03/16 03:45:58;;;;;;;10.67;9.77;;;6.20;99.90;;;;;;5069587;28;20202;-75
2022/03/16 03:48:24;;;;;;;9.73;8.73;;;6.20;99.90;;;;;;5061595;28;20188;-76
2022/03/16 03:50:49;;;;;;;9.47;8.53;;;6.30;99.90;;;;;;5060515;28;20186;-75
2022/03/16 03:53:16;;;;;;;10.93;9.93;;;6.20;99.90;;;;;;5065847;28;20214;-75
2022/03/16 03:55:41;;;;;;;9.87;9.00;;;6.30;99.90;;;;;;5063374;28;20190;-75
2022/03/16 03:58:07;;;;;;;9.53;8.63;;;6.30;99.90;;;;;;5063758;28;20191;-75
2022/03/16 04:00:33;;;;;;;10.20;9.20;;;6.30;99.90;;;;;;5063836;28;20645;-74
2022/03/16 04:02:58;;;;;;;9.83;8.83;;;6.20;99.90;;;;;;5064874;28;20207;-74
2022/03/16 04:05:24;;;;;;;9.33;8.40;;;6.30;99.90;;;;;;5061605;28;20302;-74
2022/03/16 04:07:49;;;;;;;10.70;9.70;;;6.30;99.90;;;;;;5061736;28;20701;-74
2022/03/16 04:10:16;;;;;;;10.00;9.00;;;6.30;99.90;;;;;;5062236;28;20184;-74
2022/03/16 04:12:42;;;;;;;10.00;9.00;;;6.40;99.90;;;;;;5069554;28;20179;-74
2022/03/16 04:15:09;;;;;;;11.13;10.03;;;6.30;99.90;;;;;;5061063;28;20365;-73
2022/03/16 04:17:34;;;;;;;10.93;9.83;;;6.30;99.90;;;;;;5061707;28;20245;-74
2022/03/16 04:20:00;;;;;;;10.27;9.37;;;6.20;99.90;;;;;;5062307;28;20196;-74
2022/03/16 04:22:27;;;;;;;10.33;9.30;;;6.20;99.90;;;;;;5072490;28;20211;-74
2022/03/16 04:24:53;;;;;;;10.87;9.77;;;6.20;99.90;;;;;;5063840;28;20210;-74
2022/03/16 04:27:20;;;;;;;11.13;10.03;;;6.10;99.90;;;;;;5067830;28;20567;-74
2022/03/16 04:29:46;;;;;;;10.63;9.60;;;6.10;99.90;;;;;;5057482;28;20172;-75
2022/03/16 04:32:11;;;;;;;11.33;10.23;;;6.10;99.90;;;;;;5065522;28;20184;-75
2022/03/16 04:34:37;;;;;;;10.30;9.23;;;6.00;99.90;;;;;;5070796;28;20264;-75
2022/03/16 04:37:03;;;;;;;11.07;9.97;;;6.00;99.90;;;;;;5063429;28;20199;-75
2022/03/16 04:39:28;;;;;;;10.17;9.17;;;6.10;99.90;;;;;;5064773;28;20194;-74
2022/03/16 04:41:54;;;;;;;10.20;9.13;;;6.10;99.90;;;;;;5068920;28;20184;-74
2022/03/16 04:44:20;;;;;;;11.67;9.57;;;6.20;99.90;;;;;;5055697;28;20285;-74
2022/03/16 04:46:45;;;;;;;9.83;8.87;;;6.30;99.90;;;;;;5060590;28;20172;-74
2022/03/16 04:49:11;;;;;;;10.60;9.57;;;6.30;99.90;;;;;;5066211;28;20183;-74
2022/03/16 04:51:36;;;;;;;10.10;9.10;;;6.30;99.90;;;;;;5070194;28;20559;-74
2022/03/16 04:54:02;;;;;;;10.33;9.40;;;6.30;99.90;;;;;;5057919;28;20203;-75
2022/03/16 04:56:28;;;;;;;9.93;8.93;;;6.40;99.90;;;;;;5065495;28;20175;-75
2022/03/16 04:58:54;;;;;;;10.53;9.63;;;6.30;99.90;;;;;;5062820;28;20205;-74
2022/03/16 05:01:20;;;;;;;10.70;9.70;;;6.30;99.90;;;;;;5063336;28;20262;-74
2022/03/16 05:03:46;;;;;;;10.95;9.95;;;6.30;99.90;;;;;;5059929;28;20239;-75
2022/03/16 05:06:11;;;;;;;10.37;9.37;;;6.20;99.90;;;;;;5061953;28;20638;-74
2022/03/16 05:08:37;;;;;;;11.32;10.23;;;6.10;99.90;;;;;;5059132;28;20167;-75
2022/03/16 05:11:04;;;;;;;11.43;10.30;;;6.10;99.90;;;;;;5065539;28;20267;-74
2022/03/16 05:13:30;;;;;;;10.93;9.93;;;6.10;99.90;;;;;;5068480;28;20299;-75
2022/03/16 05:15:56;;;;;;;11.97;10.87;;;6.10;99.90;;;;;;5063102;28;20184;-74
2022/03/16 05:18:23;;;;;;;11.10;10.00;;;6.10;99.90;;;;;;5058790;28;20225;-74
2022/03/16 05:20:49;;;;;;;10.75;9.75;;;6.10;99.90;;;;;;5074632;28;20568;-74
2022/03/16 05:23:14;;;;;;;10.45;9.45;;;6.10;99.90;;;;;;5059142;28;20704;-74
2022/03/16 05:25:41;;;;;;;10.82;9.82;;;6.20;99.90;;;;;;5057911;28;20269;-74
2022/03/16 05:28:07;;;;;;;11.67;10.47;;;6.20;99.90;;;;;;5063404;28;20245;-74
2022/03/16 05:30:33;;;;;;;12.30;11.10;;;6.30;99.90;;;;;;5064129;28;20637;-75
2022/03/16 05:33:00;;;;;;;11.85;10.70;;;6.30;99.90;;;;;;5055687;28;20418;-75
2022/03/16 05:35:26;;;;;;;12.03;10.83;;;6.30;99.90;;;;;;5054844;28;20254;-75
2022/03/16 05:37:52;;;;;;;11.70;10.60;;;6.40;99.90;;;;;;5056468;28;20186;-74
2022/03/16 05:40:18;;;;;;;11.35;10.25;;;6.60;99.90;;;;;;5061108;28;20199;-74
2022/03/16 05:42:44;;;;;;;12.05;10.85;;;6.60;99.90;;;;;;5058311;28;20195;-74
2022/03/16 05:45:10;;;;;;;11.85;10.73;;;6.60;99.90;;;;;;5055498;28;20241;-74
2022/03/16 05:47:36;;;;;;;11.40;10.20;;;6.60;99.90;;;;;;5058883;28;20199;-74
2022/03/16 05:50:03;;;;;;;11.13;10.02;;;6.60;99.90;;;;;;5062163;28;20190;-74
2022/03/16 05:52:31;;;;;;;11.27;10.07;;;6.50;99.90;;;;;;5067826;28;20176;-74
2022/03/16 05:54:58;;;;;;;11.05;10.05;;;6.60;99.90;;;;;;5064993;28;20195;-74
2022/03/16 05:57:24;;;;;;;10.98;9.80;;;6.70;99.90;;;;;;5080268;28;20179;-73
2022/03/16 05:59:50;;;;;;;11.15;10.05;;;6.80;99.90;;;;;;5066359;28;20622;-74
2022/03/16 06:02:16;;;;;;;11.52;10.35;;;6.80;99.90;;;;;;5067261;28;20729;-74
2022/03/16 06:04:45;;;;;;;12.52;11.30;;;6.80;99.90;;;;;;5063425;28;20190;-74
2022/03/16 06:07:11;;;;;;;13.23;11.98;;;6.80;99.90;;;;;;5067015;28;20573;-73
2022/03/16 06:09:37;;;;;;;11.93;10.75;;;6.80;99.90;;;;;;5064943;28;20186;-74
2022/03/16 06:12:03;;;;;;;12.40;11.10;;;6.80;99.90;;;;;;5068644;28;20175;-75
2022/03/16 06:14:31;;;;;;;11.38;10.15;;;6.70;99.90;;;;;;5067254;28;20208;-75
2022/03/16 06:16:57;;;;;;;11.98;10.77;;;6.70;99.90;;;;;;5064827;28;20266;-75
2022/03/16 06:19:23;;;;;;;11.63;10.43;;;6.80;99.90;;;;;;5063648;28;20211;-75
2022/03/16 06:21:48;;;;;;;12.63;11.30;;;6.80;99.90;;;;;;5065759;28;20639;-76
2022/03/16 06:24:15;;;;;;;11.32;10.23;;;6.80;99.90;;;;;;5058686;28;20294;-72
2022/03/16 06:26:41;;;;;;;12.63;11.27;;;6.80;99.90;;;;;;5065902;28;20564;-72
2022/03/16 06:29:07;;;;;;;11.77;10.50;;;6.90;99.90;;;;;;5063723;28;20175;-69
2022/03/16 06:31:33;;;;;;;12.48;11.23;;;6.90;99.90;;;;;;5068927;28;20179;-71
2022/03/16 06:33:59;;;;;;;12.38;11.18;;;7.00;99.90;;;;;;5060371;28;20214;-70
2022/03/16 06:36:26;;;;;;;12.70;11.50;;;7.00;99.90;;;;;;5066925;28;20179;-70
2022/03/16 06:38:52;;;;;;;11.60;10.40;;;7.00;99.90;;;;;;5062370;28;20183;-71
2022/03/16 06:41:18;;;;;;;12.57;11.27;;;7.10;99.90;;;;;;5062007;28;20176;-72
2022/03/16 06:43:43;;;;;;;12.40;11.10;;;7.10;99.90;;;;;;5059488;28;20259;-72
2022/03/16 06:46:09;;;;;;;12.30;11.13;;;7.10;99.90;;;;;;5061354;28;20178;-73
2022/03/16 06:48:35;;;;;;;12.27;10.98;;;7.20;99.90;;;;;;5065264;28;20274;-72
2022/03/16 06:51:00;;;;;;;13.13;11.82;;;7.30;99.90;;;;;;5059308;28;20198;-72
2022/03/16 06:53:27;;;;;;;12.07;10.88;;;7.30;99.90;;;;;;5064751;28;20340;-72
2022/03/16 06:55:54;;;;;;;13.90;12.48;;;7.30;99.90;;;;;;5062517;28;20172;-76
2022/03/16 06:58:19;;;;;;;12.18;10.98;;;7.30;99.90;;;;;;5060506;28;20179;-74
2022/03/16 07:00:45;;;;;;;13.02;11.68;;;7.40;99.90;;;;;;5063663;28;20186;-75
2022/03/16 07:03:11;;;;;;;11.93;10.73;;;7.40;99.90;;;;;;5066245;28;20718;-74
2022/03/16 07:05:39;;;;;;;13.43;12.13;;;7.40;99.90;;;;;;5055926;28;20175;-71
2022/03/16 07:08:09;;;;;;;13.38;11.98;;;7.50;99.90;;;;;;5062790;28;20576;-71
2022/03/16 07:10:37;;;;;;;13.02;11.70;;;7.60;99.90;;;;;;5061224;28;20167;-74
2022/03/16 07:13:03;;;;;;;13.25;11.85;;;7.60;99.90;;;;;;5056474;28;20184;-72
2022/03/16 07:15:31;;;;;;;14.35;12.00;;;7.70;99.90;;;;;;5063737;28;20290;-72
2022/03/16 07:17:57;;;;;;;12.85;11.48;;;7.80;99.90;;;;;;5062329;28;20189;-72
2022/03/16 07:20:23;;;;;;;13.63;12.23;;;7.90;99.90;;;;;;5061355;28;20175;-72
2022/03/16 07:23:12;;;;;;;12.38;11.27;;;7.90;99.90;;;;;;5066632;28;20255;-72
2022/03/16 07:25:39;;;;;;;13.93;12.20;;;8.00;99.90;;;;;;5053521;28;20196;-72
2022/03/16 07:28:05;;;;;;;13.82;12.52;;;7.90;99.90;;;;;;5063099;28;20214;-72
2022/03/16 07:30:30;;;;;;;13.00;11.55;;;7.90;99.90;;;;;;5061269;28;20265;-72
2022/03/16 07:32:56;;;;;;;13.80;12.40;;;7.90;99.90;;;;;;5063641;28;20614;-72
2022/03/16 07:35:26;;;;;;;12.77;11.48;;;7.90;99.90;;;;;;5061421;28;20735;-72
2022/03/16 07:37:54;;;;;;;16.52;12.13;;;8.00;99.90;;;;;;5059842;28;20208;-71
2022/03/16 07:40:20;;;;;;;13.90;12.40;;;8.20;99.90;;;;;;5060960;28;20206;-71
2022/03/16 07:42:47;;;;;;;12.32;11.23;;;8.40;99.90;;;;;;5062587;28;20191;-73
2022/03/16 07:45:18;;;;;;;13.95;12.35;;;8.60;99.90;;;;;;5065573;28;20207;-74
2022/03/16 07:47:48;;;;;;;13.20;11.82;;;8.70;99.90;;;;;;5061752;28;20174;-73
2022/03/16 07:50:15;;;;;;;12.45;11.20;;;8.80;99.90;;;;;;5059362;28;20250;-74
2022/03/16 07:52:42;;;;;;;12.40;11.15;;;9.00;99.90;;;;;;5071829;28;20187;-72
2022/03/16 07:55:09;;;;;;;13.27;11.85;;;9.10;99.90;;;;;;5068016;28;20226;-72
2022/03/16 07:57:38;;;;;;;13.38;12.07;;;9.10;99.90;;;;;;5059842;28;20210;-74
2022/03/16 08:00:06;;;;;;;13.93;12.60;;;9.20;99.90;;;;;;5064981;28;20179;-71
2022/03/16 08:02:31;;;;;;;12.98;11.77;;;9.30;99.90;;;;;;5062480;28;20277;-72
2022/03/16 08:04:58;;;;;;;16.25;12.80;;;9.30;99.90;;;;;;5061113;28;20235;-72
2022/03/16 08:07:28;;;;;;;14.50;13.00;;;9.40;99.90;;;;;;5059489;28;20179;-69
2022/03/16 08:09:54;;;;;;;12.45;11.25;;;9.60;99.90;;;;;;5063570;28;20222;-70
2022/03/16 08:12:20;;;;;;;12.75;11.43;;;9.80;99.90;;;;;;5064167;28;20184;-72
2022/03/16 08:14:45;;;;;;;13.10;11.73;;;9.90;99.90;;;;;;5060519;28;20686;-72
2022/03/16 08:17:11;;;;;;;12.95;11.75;;;10.00;99.90;;;;;;5053905;28;20242;-74
2022/03/16 08:19:37;;;;;;;13.43;12.18;;;10.00;99.90;;;;;;5068113;28;20188;-73
2022/03/16 08:22:03;;;;;;;13.85;11.05;;;10.30;99.90;;;;;;5063819;28;20194;-71
2022/03/16 08:24:28;;;;;;;12.65;11.45;;;10.50;99.90;;;;;;5067859;28;20234;-73
2022/03/16 08:26:54;;;;;;;13.10;11.77;;;10.60;99.90;;;;;;5065490;28;20218;-72
2022/03/16 08:29:19;;;;;;;13.43;10.77;;;10.60;99.90;;;;;;5071091;28;20606;-72
2022/03/16 08:31:45;;;;;;;12.55;11.30;;;10.70;99.90;;;;;;5061487;28;20172;-73
2022/03/16 08:34:11;;;;;;;12.32;11.13;;;10.90;99.90;;;;;;5061360;28;20207;-73
2022/03/16 08:36:38;;;;;;;11.63;10.52;;;11.10;99.90;;;;;;5067871;28;20215;-73
2022/03/16 08:39:05;;;;;;;12.65;11.45;;;11.10;99.90;;;;;;5064468;28;20718;-72
2022/03/16 08:41:32;;;;;;;12.20;11.10;;;11.20;99.90;;;;;;5059805;28;20210;-77
2022/03/16 08:43:58;;;;;;;11.90;10.90;;;11.40;99.90;;;;;;5059129;28;20226;-72
2022/03/16 08:46:24;;;;;;;13.05;11.75;;;11.40;99.90;;;;;;5064879;28;20697;-72
2022/03/16 08:48:50;;;;;;;11.85;10.65;;;11.70;99.90;;;;;;5067310;28;20217;-72
2022/03/16 08:51:15;;;;;;;11.25;10.15;;;12.00;99.90;;;;;;5066847;28;20183;-76
2022/03/16 08:53:41;;;;;;;13.13;11.77;;;12.30;99.90;;;;;;5058386;28;20351;-74
2022/03/16 08:56:06;;;;;;;12.80;11.57;;;12.70;99.90;;;;;;5061866;28;20184;-74
2022/03/16 08:58:33;;;;;;;12.20;10.95;;;13.30;99.90;;;;;;5061927;28;20198;-76
2022/03/16 09:00:58;;;;;;;13.07;11.77;;;14.50;99.90;;;;;;5062052;28;20198;-76
2022/03/16 09:03:24;;;;;;;12.38;11.27;;;15.70;99.90;;;;;;5067983;28;20211;-73
2022/03/16 09:05:52;;;;;;;12.95;11.65;;;16.40;99.90;;;;;;5062299;28;20540;-75
2022/03/16 09:08:18;;;;;;;12.18;10.98;;;16.50;99.90;;;;;;5061017;28;20541;-74
2022/03/16 09:10:45;;;;;;;12.52;11.32;;;16.70;99.90;;;;;;5068911;28;20183;-74
2022/03/16 09:13:10;;;;;;;12.93;11.82;;;16.70;99.90;;;;;;5063424;28;20225;-75
2022/03/16 09:15:36;;;;;;;12.75;11.45;;;16.20;99.90;;;;;;5057499;28;20266;-73
2022/03/16 09:18:02;;;;;;;13.52;12.40;;;15.90;99.90;;;;;;5061058;28;20206;-73
2022/03/16 09:20:28;;;;;;;12.77;11.57;;;15.20;99.90;;;;;;5065663;28;20184;-73
2022/03/16 09:22:54;;;;;;;12.13;11.00;;;14.90;99.90;;;;;;5067428;28;20214;-73
2022/03/16 09:25:22;;;;;;;12.88;11.57;;;15.40;99.90;;;;;;5071910;28;20198;-73
2022/03/16 09:27:48;;;;;;;13.23;11.93;;;15.50;99.90;;;;;;5063281;28;20229;-73
2022/03/16 09:30:13;;;;;;;12.93;11.77;;;15.60;99.90;;;;;;5065308;28;20175;-73
2022/03/16 09:32:39;;;;;;;12.90;11.65;;;15.40;99.90;;;;;;5066166;28;20262;-75
2022/03/16 09:35:06;;;;;;;12.20;11.10;;;15.50;99.90;;;;;;5069597;28;20314;-73
2022/03/16 09:37:32;;;;;;;11.45;10.35;;;16.10;99.90;;;;;;5060735;28;20228;-74
2022/03/16 09:39:58;;;;;;;13.02;11.82;;;17.10;99.90;;;;;;5066085;28;20217;-72
2022/03/16 09:42:25;;;;;;;12.85;11.65;;;17.70;99.90;;;;;;5064716;28;20674;-71
2022/03/16 09:44:53;;;;;;;12.23;11.13;;;18.70;99.90;;;;;;5064204;28;20593;-75
2022/03/16 09:47:22;;;;;;;12.48;11.38;;;19.50;98.00;;;;;;5060608;28;20172;-75
2022/03/16 09:49:48;;;;;;;13.05;11.95;;;19.60;96.20;;;;;;5079939;28;20214;-73
2022/03/16 09:52:15;;;;;;;12.55;11.43;;;20.00;95.00;;;;;;5066387;28;20237;-74
2022/03/16 09:54:41;;;;;;;13.30;12.18;;;20.40;92.90;;;;;;5068774;28;20674;-72
2022/03/16 09:57:06;;;;;;;12.95;11.75;;;19.70;91.90;;;;;;5066884;28;20266;-75
2022/03/16 09:59:32;;;;;;;11.75;10.75;;;18.80;93.10;;;;;;5066142;28;20180;-75
2022/03/16 10:02:00;;;;;;;13.27;12.07;;;18.30;93.80;;;;;;5063262;28;20191;-75
2022/03/16 10:04:31;;;;;;;13.75;12.45;;;17.80;95.50;;;;;;5067078;28;20203;-75
2022/03/16 10:07:00;;;;;;;13.15;11.88;;;17.80;95.90;;;;;;5064537;28;20263;-75
2022/03/16 10:15:04;;;;;;;14.77;13.45;;;16.90;96.20;;;;;;5056163;28;20580;-73
2022/03/16 10:17:45;;;;;;;14.65;13.35;;;16.00;97.10;;;;;;5058573;28;20658;-73
2022/03/16 10:20:22;;;;;;;14.82;13.52;;;15.90;98.30;;;;;;5058725;28;20183;-74
2022/03/16 10:23:09;;;;;;;14.25;12.55;;;15.50;99.20;;;;;;5057530;28;20214;-74
2022/03/16 10:25:39;;;;;;;14.18;12.85;;;16.40;99.10;;;;;;5058550;28;20673;-74
2022/03/16 10:28:11;;;;;;;16.65;12.57;;;17.30;97.30;;;;;;5062914;28;20183;-74
2022/03/16 10:30:52;;;;;;;14.45;13.07;;;18.50;96.80;;;;;;5061542;28;20187;-74
2022/03/16 10:33:19;;;;;;;13.57;12.27;;;19.90;90.30;;;;;;5062723;28;20195;-74
2022/03/16 10:35:57;;;;;;;13.13;11.93;;;20.10;89.70;;;;;;5063518;28;20171;-75
2022/03/16 10:38:24;;;;;;;13.98;12.68;;;20.00;88.60;;;;;;5065625;28;20658;-72
2022/03/16 10:40:50;;;;;;;13.25;12.05;;;19.80;86.10;;;;;;5063849;28;20180;-76
2022/03/16 10:46:34;;;;;;;12.95;11.85;;;19.40;85.10;;;;;;5056660;28;20247;-76
2022/03/16 10:49:12;;;;;;;14.07;12.18;;;19.00;86.30;;;;;;5058201;28;20221;-74
2022/03/16 10:51:38;;;;;;;12.15;11.07;;;18.90;88.60;;;;;;5055994;28;20179;-74
2022/03/16 10:54:05;;;;;;;13.45;12.25;;;20.20;86.90;;;;;;5060735;28;20205;-75
2022/03/16 10:56:32;;;;;;;13.90;12.60;;;21.30;81.90;;;;;;5063913;28;20184;-75
2022/03/16 10:58:59;;;;;;;14.63;13.25;;;22.20;79.10;;;;;;5059700;28;20218;-74
2022/03/16 11:01:27;;;;;;;14.38;13.10;;;22.70;76.50;;;;;;5057096;28;20183;-75
2022/03/16 11:03:58;;;;;;;12.73;11.60;;;23.20;75.20;;;;;;5061407;28;20207;-74
2022/03/16 11:06:25;;;;;;;13.52;12.23;;;24.10;70.70;;;;;;5062311;28;20180;-74
2022/03/16 11:08:51;;;;;;;12.25;11.10;;;25.10;66.10;;;;;;5062836;28;20163;-74
2022/03/16 11:14:03;;;;;;;11.25;10.35;;;27.00;57.70;;;;;;5061597;28;20219;-76
2022/03/16 11:16:32;;;;;;;12.20;11.15;;;28.30;54.90;;;;;;5065986;28;20186;-75
2022/03/16 11:19:01;;;;;;;12.05;10.95;;;29.50;51.60;;;;;;5061493;28;20216;-74
2022/03/16 11:21:48;;;;;;;12.25;11.25;;;30.50;48.00;;;;;;5057850;28;20787;-73
2022/03/16 11:24:19;;;;;;;12.15;11.15;;;30.90;46.10;;;;;;5065626;28;20715;-74
2022/03/16 11:27:15;;;;;;;12.02;10.85;;;30.40;44.50;;;;;;5056851;28;20642;-77
2022/03/16 11:30:08;;;;;;;11.57;10.68;;;29.30;47.20;;;;;;5057282;28;20544;-76
2022/03/16 11:32:38;;;;;;;12.65;11.20;;;29.60;46.30;;;;;;5066213;28;20642;-75
2022/03/16 11:35:16;;;;;;;12.48;11.38;;;29.40;46.20;;;;;;5065661;28;20203;-74
2022/03/16 11:37:47;;;;;;;11.93;10.95;;;29.90;45.50;;;;;;5063643;28;20179;-75
2022/03/16 11:40:16;;;;;;;11.55;10.65;;;29.70;45.20;;;;;;5061744;28;20186;-73
2022/03/16 11:43:04;;;;;;;13.15;11.90;;;29.90;44.50;;;;;;5058580;28;20203;-72
2022/03/16 11:45:40;;;;;;;12.43;11.38;;;28.80;46.10;;;;;;5065743;28;20230;-74
2022/03/16 11:48:37;;;;;;;12.82;11.65;;;27.80;46.10;;;;;;5058965;28;20244;-78
2022/03/16 11:51:06;;;;;;;11.77;10.77;;;26.60;48.60;;;;;;5064735;28;20191;-75
2022/03/16 11:53:47;;;;;;;12.00;11.00;;;27.20;48.10;;;;;;5062293;28;20203;-75
2022/03/16 11:56:20;;;;;;;12.93;11.85;;;26.20;48.70;;;;;;5059535;28;20621;-77
2022/03/16 11:58:47;;;;;;;13.35;12.15;;;25.90;49.50;;;;;;5071538;28;20596;-75
2022/03/16 12:01:29;;;;;;;12.98;11.88;;;26.60;48.00;;;;;;5060501;28;20262;-76
2022/03/16 12:04:12;;;;;;;12.93;11.85;;;26.80;48.10;;;;;;5061418;28;20298;-77
2022/03/16 12:07:12;;;;;;;12.63;11.63;;;26.80;48.10;;;;;;5062365;28;20225;-78
2022/03/16 12:09:51;;;;;;;12.27;11.23;;;27.50;48.60;;;;;;5049008;28;20197;-75
2022/03/16 12:12:57;;;;;;;13.32;12.23;;;27.60;46.70;;;;;;5061159;28;20167;-76
2022/03/16 12:15:34;;;;;;;13.52;12.35;;;26.80;47.70;;;;;;5056359;28;20282;-76
2022/03/16 12:18:00;;;;;;;13.25;12.07;;;26.60;49.30;;;;;;5058052;28;20183;-76
2022/03/16 12:20:40;;;;;;;13.52;12.23;;;27.00;48.70;;;;;;5056941;28;20271;-77
2022/03/16 12:23:09;;;;;;;14.02;12.82;;;27.00;48.50;;;;;;5060681;28;20211;-75
2022/03/16 12:25:37;;;;;;;11.98;10.88;;;27.20;48.00;;;;;;5070272;28;20190;-75
2022/03/16 12:31:01;;;;;;;13.07;11.98;;;27.10;47.40;;;;;;5059914;28;20182;-75
2022/03/16 12:33:31;;;;;;;12.85;11.80;;;27.30;47.70;;;;;;5065911;28;20207;-76
2022/03/16 12:36:01;;;;;;;13.00;12.00;;;27.40;48.10;;;;;;5058079;28;20686;-76
2022/03/16 12:38:32;;;;;;;13.90;12.63;;;27.50;46.70;;;;;;5062973;28;20186;-75
2022/03/16 12:43:48;;;;;;;13.20;12.10;;;27.30;48.40;;;;;;5071486;28;20296;-76
2022/03/16 12:46:28;;;;;;;13.65;12.45;;;27.30;46.60;;;;;;5066877;28;20652;-76
2022/03/16 12:49:02;;;;;;;13.50;12.40;;;27.30;47.80;;;;;;5070302;28;20546;-74
2022/03/16 12:51:49;;;;;;;13.10;12.00;;;27.40;46.80;;;;;;5063720;28;20657;-76
2022/03/16 12:54:26;;;;;;;13.25;12.00;;;27.90;46.90;;;;;;5069149;28;20207;-75
2022/03/16 12:56:55;;;;;;;12.35;11.45;;;27.10;46.30;;;;;;5067910;28;20178;-79